createdAt,value
2018-06-22T00:00:02.090Z,620
2018-06-22T00:01:09.974Z,619
2018-06-22T00:02:17.855Z,618
2018-06-22T00:03:25.741Z,618
2018-06-22T00:04:33.342Z,617
2018-06-22T00:05:41.317Z,617
2018-06-22T00:06:49.231Z,618
2018-06-22T00:07:57.121Z,619
2018-06-22T00:09:05.004Z,619
2018-06-22T00:10:12.890Z,620
2018-06-22T00:11:20.810Z,619
2018-06-22T00:12:28.423Z,620
2018-06-22T00:13:36.307Z,618
2018-06-22T00:14:43.921Z,619
2018-06-22T00:15:51.807Z,618
2018-06-22T00:16:59.689Z,618
2018-06-22T00:18:07.299Z,619
2018-06-22T00:19:14.605Z,618
2018-06-22T00:20:22.192Z,619
2018-06-22T00:21:30.065Z,619
2018-06-22T00:22:37.948Z,620
2018-06-22T00:23:45.554Z,621
2018-06-22T00:24:53.433Z,621
2018-06-22T00:26:01.314Z,620
2018-06-22T00:27:09.201Z,621
2018-06-22T00:28:17.107Z,621
2018-06-22T00:29:24.714Z,623
2018-06-22T00:30:32.321Z,624
2018-06-22T00:31:40.202Z,623
2018-06-22T00:32:47.810Z,622
2018-06-22T00:33:55.694Z,622
2018-06-22T00:35:03.577Z,622
2018-06-22T00:36:11.459Z,621
2018-06-22T00:37:19.340Z,620
2018-06-22T00:38:27.226Z,620
2018-06-22T00:39:35.104Z,620
2018-06-22T00:40:42.987Z,621
2018-06-22T00:41:50.882Z,620
2018-06-22T00:42:58.763Z,620
2018-06-22T00:44:06.648Z,620
2018-06-22T00:45:14.267Z,621
2018-06-22T00:46:22.152Z,621
2018-06-22T00:47:29.759Z,621
2018-06-22T00:48:37.638Z,621
2018-06-22T00:49:45.523Z,622
2018-06-22T00:50:53.416Z,622
2018-06-22T00:52:01.303Z,622
2018-06-22T00:53:09.183Z,622
2018-06-22T00:54:17.072Z,623
2018-06-22T00:55:24.956Z,622
2018-06-22T00:56:32.836Z,623
2018-06-22T00:57:40.715Z,623
2018-06-22T00:58:48.325Z,624
2018-06-22T00:59:56.202Z,624
2018-06-22T01:01:04.084Z,623
2018-06-22T01:02:11.971Z,622
2018-06-22T01:03:19.857Z,621
2018-06-22T01:04:27.738Z,623
2018-06-22T01:05:35.617Z,623
2018-06-22T01:06:43.505Z,622
2018-06-22T01:07:51.134Z,621
2018-06-22T01:08:59.018Z,621
2018-06-22T01:10:06.903Z,621
2018-06-22T01:11:14.789Z,621
2018-06-22T01:12:22.671Z,620
2018-06-22T01:13:30.282Z,619
2018-06-22T01:14:38.160Z,619
2018-06-22T01:15:46.046Z,620
2018-06-22T01:16:53.921Z,619
2018-06-22T01:18:01.810Z,620
2018-06-22T01:19:09.688Z,619
2018-06-22T01:20:17.569Z,620
2018-06-22T01:21:25.447Z,621
2018-06-22T01:22:33.368Z,621
2018-06-22T01:23:40.973Z,621
2018-06-22T01:24:48.853Z,621
2018-06-22T01:25:56.458Z,621
2018-06-22T01:27:03.793Z,621
2018-06-22T01:28:11.675Z,620
2018-06-22T01:29:19.558Z,620
2018-06-22T01:30:27.443Z,620
2018-06-22T01:31:35.327Z,620
2018-06-22T01:32:43.212Z,620
2018-06-22T01:33:51.092Z,619
2018-06-22T01:34:58.978Z,619
2018-06-22T01:36:06.860Z,619
2018-06-22T01:37:14.747Z,618
2018-06-22T01:38:22.625Z,619
2018-06-22T01:39:30.234Z,620
2018-06-22T01:40:37.843Z,620
2018-06-22T22:00:07.291Z,555
2018-06-22T22:01:15.169Z,546
2018-06-22T22:02:23.050Z,545
2018-06-22T22:03:30.949Z,544
2018-06-22T22:04:38.555Z,544
2018-06-22T22:05:46.439Z,543
2018-06-22T22:06:54.329Z,543
2018-06-22T22:08:02.208Z,544
2018-06-22T22:09:10.094Z,544
2018-06-22T22:10:17.974Z,544
2018-06-22T22:11:25.861Z,544
2018-06-22T22:12:33.743Z,543
2018-06-22T22:13:41.622Z,543
2018-06-22T22:14:49.503Z,544
2018-06-22T22:15:57.392Z,543
2018-06-22T22:17:05.268Z,542
2018-06-22T22:18:13.151Z,543
2018-06-22T22:19:21.035Z,543
2018-06-22T22:20:28.910Z,541
2018-06-22T22:21:36.518Z,541
2018-06-22T22:22:44.403Z,542
2018-06-22T22:23:52.286Z,541
2018-06-22T22:24:59.894Z,503
2018-06-22T22:26:07.771Z,520
2018-06-22T22:27:15.675Z,524
2018-06-22T22:28:23.558Z,522
2018-06-22T22:29:31.438Z,537
2018-06-22T22:30:39.317Z,537
2018-06-22T22:31:47.196Z,537
2018-06-22T22:32:55.080Z,537
2018-06-22T22:34:02.961Z,491
2018-06-22T22:35:10.846Z,541
2018-06-22T22:36:18.724Z,540
2018-06-22T22:37:26.611Z,537
2018-06-22T22:38:34.234Z,537
2018-06-22T22:39:42.117Z,535
2018-06-22T22:40:49.997Z,534
2018-06-22T22:41:57.908Z,534
2018-06-22T22:43:05.783Z,533
2018-06-22T22:44:13.396Z,531
2018-06-22T22:45:21.288Z,531
2018-06-22T22:46:29.161Z,530
2018-06-22T22:47:37.045Z,530
2018-06-22T22:48:44.934Z,531
2018-06-22T22:49:52.823Z,530
2018-06-22T22:51:00.745Z,528
2018-06-22T22:52:08.371Z,526
2018-06-22T22:53:16.255Z,526
2018-06-22T22:54:24.153Z,525
2018-06-22T22:55:32.035Z,524
2018-06-22T22:56:39.919Z,524
2018-06-22T22:57:47.799Z,523
2018-06-22T22:58:55.682Z,523
2018-06-22T23:00:03.567Z,523
2018-06-22T23:01:11.170Z,520
2018-06-22T23:02:19.070Z,518
2018-06-22T23:03:26.950Z,515
2018-06-22T23:04:34.833Z,513
2018-06-22T23:05:42.745Z,513
2018-06-22T23:06:50.612Z,513
2018-06-22T23:07:58.492Z,513
2018-06-22T23:09:06.377Z,511
2018-06-22T23:10:14.258Z,511
2018-06-22T23:11:21.870Z,512
2018-06-22T23:12:29.476Z,511
2018-06-22T23:13:37.361Z,509
2018-06-22T23:14:45.257Z,509
2018-06-22T23:15:53.150Z,509
2018-06-22T23:17:01.029Z,509
2018-06-22T23:18:08.912Z,510
2018-06-22T23:19:16.804Z,509
2018-06-22T23:20:24.678Z,509
2018-06-22T23:21:32.615Z,509
2018-06-22T23:22:40.494Z,509
2018-06-22T23:23:48.382Z,510
2018-06-22T23:24:56.304Z,510
2018-06-22T23:26:04.180Z,511
2018-06-22T23:27:11.793Z,512
2018-06-22T23:28:19.668Z,513
2018-06-22T23:29:27.275Z,514
2018-06-22T23:30:35.164Z,516
2018-06-22T23:31:43.045Z,517
2018-06-22T23:32:50.932Z,518
2018-06-22T23:33:58.818Z,520
2018-06-22T23:35:06.702Z,521
2018-06-22T23:36:14.304Z,522
2018-06-22T23:37:22.190Z,520
2018-06-22T23:38:30.072Z,521
2018-06-22T23:39:37.952Z,520
2018-06-22T23:40:45.840Z,519
2018-06-22T23:41:53.715Z,519
2018-06-22T23:43:01.321Z,516
2018-06-22T23:44:09.225Z,516
2018-06-22T23:45:16.831Z,515
2018-06-22T23:46:24.719Z,514
2018-06-22T23:47:32.602Z,513
2018-06-22T23:48:40.480Z,512
2018-06-22T23:49:48.371Z,511
2018-06-22T23:50:56.253Z,511
2018-06-22T23:52:04.132Z,510
2018-06-22T23:53:12.014Z,508
2018-06-22T23:54:19.591Z,507
2018-06-22T23:55:27.188Z,505
2018-06-22T23:56:35.067Z,504
2018-06-22T23:57:42.951Z,503
2018-06-22T23:58:50.834Z,503
2018-06-22T23:59:58.438Z,502
